createdAt,value
2023-02-02T00:02:04.199Z,26.33
2023-02-02T00:04:32.821Z,30.77
2023-02-02T00:07:00.309Z,21.10
2023-02-02T00:09:31.520Z,16.80
2023-02-02T00:11:59.788Z,28.08
2023-02-02T00:14:27.083Z,25.38
2023-02-02T00:16:55.296Z,26.17
2023-02-02T00:19:24.715Z,28.90
2023-02-02T00:21:51.787Z,23.13
2023-02-02T00:24:19.480Z,24.63
2023-02-02T00:26:51.042Z,21.75
2023-02-02T00:29:25.482Z,21.45
2023-02-02T00:31:52.895Z,27.58
2023-02-02T00:34:20.517Z,32.30
2023-02-02T00:36:48.017Z,16.67
2023-02-02T00:39:18.552Z,26.23
2023-02-02T00:41:46.219Z,20.98
2023-02-02T00:44:32.269Z,22.08
2023-02-02T00:46:59.403Z,23.08
2023-02-02T00:49:26.611Z,22.90
2023-02-02T00:51:53.703Z,17.55
2023-02-02T00:54:20.848Z,21.23
2023-02-02T00:56:48.180Z,26.48
2023-02-02T00:59:15.421Z,24.00
2023-02-02T01:01:42.500Z,27.00
2023-02-02T01:04:09.571Z,17.83
2023-02-02T01:06:36.714Z,20.42
2023-02-02T01:09:04.569Z,21.17
2023-02-02T01:11:32.795Z,14.53
2023-02-02T01:13:59.909Z,11.80
2023-02-02T01:16:27.109Z,11.55
2023-02-02T01:18:54.347Z,15.82
2023-02-02T01:21:21.911Z,9.45
2023-02-02T01:23:49.405Z,12.30
2023-02-02T01:26:17.421Z,9.25
2023-02-02T01:28:44.573Z,11.18
2023-02-02T01:31:13.514Z,10.95
2023-02-02T01:33:41.145Z,13.30
2023-02-02T01:36:10.632Z,10.18
2023-02-02T01:38:38.045Z,11.73
2023-02-02T01:41:05.232Z,11.57
2023-02-02T01:43:47.262Z,10.18
2023-02-02T01:46:18.189Z,12.45
2023-02-02T01:48:51.275Z,14.75
2023-02-02T01:51:21.564Z,7.30
2023-02-02T01:53:50.890Z,7.03
2023-02-02T01:56:39.228Z,7.35
2023-02-02T01:59:06.569Z,7.28
2023-02-02T02:01:33.321Z,4.28
2023-02-02T02:04:00.129Z,8.73
2023-02-02T02:06:28.241Z,6.45
2023-02-02T02:09:04.137Z,4.93
2023-02-02T02:11:33.516Z,6.70
2023-02-02T02:14:22.108Z,10.18
2023-02-02T02:20:06.255Z,9.65
2023-02-02T02:23:18.875Z,8.57
2023-02-02T02:26:33.801Z,12.63
2023-02-02T02:29:25.066Z,16.02
2023-02-02T02:32:19.876Z,9.95
2023-02-02T02:34:58.004Z,13.38
2023-02-02T02:37:55.180Z,15.05
2023-02-02T02:40:45.716Z,16.80
2023-02-02T02:43:21.342Z,19.60
2023-02-02T02:45:48.521Z,19.25
2023-02-02T02:48:15.392Z,27.58
2023-02-02T02:50:42.225Z,21.52
2023-02-02T02:53:14.268Z,20.17
2023-02-02T02:56:14.430Z,31.35
2023-02-02T02:59:09.326Z,24.33
2023-02-02T03:02:11.015Z,25.92
2023-02-02T03:04:50.292Z,29.52
2023-02-02T03:07:29.840Z,18.33
2023-02-02T03:10:01.184Z,29.05
2023-02-02T03:12:28.088Z,25.27
2023-02-02T03:14:54.746Z,24.83
2023-02-02T03:17:21.431Z,21.92
2023-02-02T03:19:48.099Z,19.02
2023-02-02T03:22:14.758Z,29.95
2023-02-02T03:24:41.451Z,24.88
2023-02-02T03:27:08.087Z,23.45
2023-02-02T03:29:34.895Z,29.92
2023-02-02T03:32:01.624Z,20.35
2023-02-02T03:34:28.295Z,26.00
2023-02-02T03:36:54.954Z,23.77
2023-02-02T03:39:21.672Z,22.60
2023-02-02T03:41:48.336Z,27.02
2023-02-02T03:44:15.074Z,18.67
2023-02-02T03:46:41.767Z,26.85
2023-02-02T03:49:08.567Z,20.20
2023-02-02T03:51:35.289Z,23.73
2023-02-02T03:54:01.948Z,18.08
2023-02-02T03:56:28.634Z,30.67
2023-02-02T03:58:55.292Z,26.40
2023-02-02T04:01:28.045Z,20.85
2023-02-02T04:03:55.620Z,23.38
2023-02-02T04:06:22.878Z,20.17
2023-02-02T04:08:49.736Z,17.75
2023-02-02T04:11:17.397Z,24.35
2023-02-02T04:13:44.639Z,24.55
2023-02-02T04:16:12.942Z,23.23
2023-02-02T04:18:39.634Z,18.17
2023-02-02T04:21:07.523Z,21.23
2023-02-02T04:23:34.673Z,27.80
2023-02-02T04:26:01.378Z,24.23
2023-02-02T04:28:28.717Z,22.30
2023-02-02T04:30:56.359Z,25.50
2023-02-02T04:33:24.777Z,20.88
2023-02-02T04:35:51.509Z,25.48
2023-02-02T04:38:18.520Z,19.52
2023-02-02T04:40:46.704Z,21.15
2023-02-02T04:43:13.928Z,18.55
2023-02-02T04:45:42.252Z,16.55
2023-02-02T04:48:09.217Z,18.58
2023-02-02T04:50:35.969Z,21.90
2023-02-02T04:53:04.319Z,14.60
2023-02-02T04:55:31.007Z,19.80
2023-02-02T04:57:57.670Z,21.25
2023-02-02T05:00:24.803Z,16.90
2023-02-02T05:02:51.485Z,17.10
2023-02-02T05:05:18.227Z,21.33
2023-02-02T05:07:44.952Z,27.25
2023-02-02T05:10:11.987Z,20.67
2023-02-02T05:12:38.797Z,23.98
2023-02-02T05:15:05.998Z,20.35
2023-02-02T05:17:33.093Z,16.50
2023-02-02T05:19:59.827Z,16.98
2023-02-02T05:22:26.965Z,17.95
2023-02-02T05:24:53.641Z,17.23
2023-02-02T05:27:21.021Z,26.92
2023-02-02T05:29:48.448Z,26.45
2023-02-02T05:32:15.219Z,18.65
2023-02-02T05:34:41.987Z,25.20
2023-02-02T05:37:08.924Z,17.05
2023-02-02T05:39:35.646Z,14.60
2023-02-02T05:42:02.498Z,21.98
2023-02-02T05:44:29.291Z,22.17
2023-02-02T05:46:55.990Z,17.05
2023-02-02T05:49:22.651Z,16.85
2023-02-02T05:51:53.803Z,18.65
2023-02-02T05:54:21.222Z,24.02
2023-02-02T05:56:49.950Z,17.20
2023-02-02T06:01:45.400Z,18.27
2023-02-02T06:04:12.495Z,17.90
2023-02-02T06:06:39.888Z,21.52
2023-02-02T06:09:07.323Z,12.93
2023-02-02T06:11:34.994Z,20.85
2023-02-02T06:14:01.698Z,12.38
2023-02-02T06:16:28.346Z,23.17
2023-02-02T06:18:55.042Z,17.90
2023-02-02T06:21:24.699Z,20.40
2023-02-02T06:23:52.118Z,20.13
2023-02-02T06:26:19.418Z,12.18
2023-02-02T06:28:50.636Z,19.33
2023-02-02T06:31:20.452Z,19.25
2023-02-02T06:33:55.033Z,16.73
2023-02-02T06:36:22.698Z,20.92
2023-02-02T06:38:54.504Z,16.40
2023-02-02T06:41:21.740Z,16.98
2023-02-02T06:43:48.989Z,19.27
2023-02-02T06:46:15.968Z,11.77
2023-02-02T06:48:42.806Z,17.70
2023-02-02T06:51:09.572Z,15.93
2023-02-02T06:53:36.426Z,15.45
2023-02-02T06:56:06.070Z,17.67
2023-02-02T06:58:33.646Z,15.77
2023-02-02T07:01:05.711Z,17.77
2023-02-02T07:03:33.270Z,20.40
2023-02-02T07:06:09.808Z,15.52
2023-02-02T07:08:36.500Z,20.33
2023-02-02T07:11:14.738Z,20.08
2023-02-02T07:13:46.905Z,21.42
2023-02-02T07:16:15.063Z,18.55
2023-02-02T07:18:43.496Z,16.92
2023-02-02T07:21:17.979Z,13.98
2023-02-02T07:23:44.850Z,17.75
2023-02-02T07:26:13.702Z,23.95
2023-02-02T07:28:40.484Z,23.05
2023-02-02T07:31:17.672Z,17.90
2023-02-02T07:33:45.388Z,16.63
2023-02-02T07:36:16.185Z,26.17
2023-02-02T07:38:43.779Z,19.00
2023-02-02T07:41:10.627Z,17.90
2023-02-02T07:43:37.427Z,22.60
2023-02-02T07:46:08.136Z,17.75
2023-02-02T07:48:35.263Z,17.60
2023-02-02T07:51:06.801Z,19.23
2023-02-02T07:53:34.446Z,27.63
2023-02-02T07:56:12.888Z,19.70
2023-02-02T07:58:44.823Z,27.13
2023-02-02T08:01:13.968Z,24.55
2023-02-02T08:03:41.221Z,22.88
2023-02-02T08:06:20.822Z,20.83
2023-02-02T08:08:48.672Z,20.50
2023-02-02T08:11:17.738Z,19.33
2023-02-02T08:13:44.840Z,16.38
2023-02-02T08:16:12.828Z,27.92
2023-02-02T08:18:40.180Z,17.38
2023-02-02T08:21:10.899Z,15.32
2023-02-02T08:23:39.235Z,13.52
2023-02-02T08:26:13.536Z,16.27
2023-02-02T08:28:42.237Z,20.02
2023-02-02T08:33:39.742Z,14.85
2023-02-02T08:36:14.211Z,17.27
2023-02-02T08:38:41.597Z,16.83
2023-02-02T08:41:10.871Z,20.20
2023-02-02T08:43:37.542Z,15.73
2023-02-02T08:46:05.945Z,17.33
2023-02-02T08:48:34.641Z,27.27
2023-02-02T08:51:01.930Z,17.65
2023-02-02T08:53:28.933Z,19.98
2023-02-02T08:56:07.375Z,25.13
2023-02-02T08:58:35.033Z,18.83
2023-02-02T09:01:06.394Z,16.55
2023-02-02T09:03:33.338Z,24.08
2023-02-02T09:06:08.489Z,23.80
2023-02-02T09:08:35.834Z,15.82
2023-02-02T09:11:28.986Z,22.35
2023-02-02T09:13:57.725Z,19.30
2023-02-02T09:18:52.099Z,13.45
2023-02-02T09:21:20.406Z,15.70
2023-02-02T09:23:48.984Z,17.38
2023-02-02T09:26:23.793Z,19.48
2023-02-02T09:28:56.433Z,20.17
2023-02-02T09:31:24.908Z,14.68
2023-02-02T09:33:51.915Z,16.75
2023-02-02T09:36:20.728Z,15.43
2023-02-02T09:41:34.390Z,17.98
2023-02-02T09:44:19.277Z,16.38
2023-02-02T09:47:15.246Z,21.63
2023-02-02T09:50:03.598Z,18.55
2023-02-02T09:52:47.697Z,22.13
2023-02-02T09:55:44.167Z,23.10
2023-02-02T09:58:27.204Z,19.52
2023-02-02T10:01:16.353Z,20.80
2023-02-02T10:04:07.705Z,16.98
2023-02-02T10:06:59.222Z,20.50
2023-02-02T10:09:54.632Z,21.20
2023-02-02T10:12:41.409Z,30.98
2023-02-02T10:15:55.716Z,19.70
2023-02-02T10:18:34.199Z,13.57
2023-02-02T10:21:04.729Z,17.17
2023-02-02T10:23:36.777Z,15.23
2023-02-02T10:26:23.094Z,18.02
2023-02-02T10:29:16.257Z,13.30
2023-02-02T10:31:59.669Z,22.65
2023-02-02T10:35:12.649Z,18.48
2023-02-02T10:38:00.994Z,21.40
2023-02-02T10:40:46.583Z,32.42
2023-02-02T10:43:31.747Z,17.10
2023-02-02T10:46:01.434Z,20.92
2023-02-02T10:48:35.839Z,16.30
2023-02-02T10:51:17.815Z,18.38
2023-02-02T10:53:51.237Z,17.02
2023-02-02T10:56:24.550Z,18.17
2023-02-02T10:58:57.013Z,16.75
2023-02-02T11:01:23.758Z,17.77
2023-02-02T11:04:10.870Z,19.30
2023-02-02T11:06:49.917Z,14.38
2023-02-02T11:09:32.765Z,21.23
2023-02-02T11:12:14.602Z,20.52
2023-02-02T11:14:56.684Z,14.10
2023-02-02T11:17:25.409Z,16.67
2023-02-02T11:22:38.507Z,13.13
2023-02-02T11:25:07.739Z,10.43
2023-02-02T11:27:41.326Z,14.00
2023-02-02T11:30:29.488Z,14.70
2023-02-02T11:32:56.463Z,18.38
2023-02-02T11:35:25.559Z,14.20
2023-02-02T11:37:56.044Z,13.05
2023-02-02T11:40:34.325Z,13.02
2023-02-02T11:43:04.945Z,20.35
2023-02-02T11:45:35.440Z,13.73
2023-02-02T11:48:14.270Z,17.98
2023-02-02T11:50:47.700Z,19.20
2023-02-02T11:53:27.560Z,14.50
2023-02-02T11:55:56.155Z,18.08
2023-02-02T11:58:27.683Z,17.40
2023-02-02T12:00:57.965Z,13.88
2023-02-02T12:03:39.998Z,16.55
2023-02-02T12:06:33.165Z,21.27
2023-02-02T12:09:02.500Z,16.45
2023-02-02T12:11:41.322Z,14.02
2023-02-02T12:14:38.769Z,12.18
2023-02-02T12:17:35.091Z,19.33
2023-02-02T12:20:33.313Z,20.45
2023-02-02T12:23:10.824Z,12.98
2023-02-02T12:25:54.399Z,12.23
2023-02-02T12:28:24.093Z,10.60
2023-02-02T12:31:04.745Z,17.90
2023-02-02T12:33:53.284Z,14.48
2023-02-02T12:36:32.733Z,15.98
2023-02-02T12:39:10.892Z,18.98
2023-02-02T12:42:00.323Z,20.20
2023-02-02T12:44:31.694Z,16.92
2023-02-02T12:47:03.968Z,15.88
2023-02-02T12:49:48.639Z,16.88
2023-02-02T12:52:20.003Z,10.65
2023-02-02T12:55:03.526Z,9.43
2023-02-02T12:57:45.273Z,11.23
2023-02-02T13:00:42.712Z,17.00
2023-02-02T13:03:09.412Z,12.10
2023-02-02T13:06:00.946Z,10.30
2023-02-02T13:08:33.797Z,12.05
2023-02-02T13:11:30.354Z,17.13
2023-02-02T13:14:05.545Z,13.88
2023-02-02T13:16:35.255Z,12.98
2023-02-02T13:19:07.014Z,12.38
2023-02-02T13:21:37.038Z,13.70
2023-02-02T13:24:06.531Z,24.90
2023-02-02T13:26:38.907Z,18.48
2023-02-02T13:29:23.065Z,10.02
2023-02-02T13:32:21.177Z,11.73
2023-02-02T13:34:53.473Z,8.60
2023-02-02T13:37:46.385Z,8.68
2023-02-02T13:40:36.541Z,9.48
2023-02-02T13:43:41.934Z,15.35
2023-02-02T13:46:36.065Z,8.73
2023-02-02T13:49:27.530Z,8.43
2023-02-02T13:52:12.289Z,7.53
2023-02-02T13:54:50.447Z,6.22
2023-02-02T13:57:21.906Z,8.15
2023-02-02T14:00:00.662Z,5.05
2023-02-02T14:02:39.765Z,3.95
2023-02-02T14:05:08.049Z,5.38
2023-02-02T14:07:46.820Z,3.55
2023-02-02T14:10:28.333Z,5.13
2023-02-02T14:12:56.138Z,2.25
2023-02-02T14:15:41.081Z,3.43
2023-02-02T14:18:08.097Z,1.52
2023-02-02T14:20:48.495Z,1.42
2023-02-02T14:23:51.065Z,2.15
2023-02-02T14:26:39.233Z,2.17
2023-02-02T14:29:31.124Z,1.73
2023-02-02T14:32:21.163Z,2.83
2023-02-02T14:34:49.127Z,1.67
2023-02-02T14:37:25.183Z,2.05
2023-02-02T14:40:18.191Z,2.65
2023-02-02T14:43:44.979Z,2.42
2023-02-02T14:46:14.663Z,2.88
2023-02-02T14:49:06.827Z,1.42
2023-02-02T14:51:46.301Z,1.98
2023-02-02T14:54:42.155Z,2.28
2023-02-02T14:57:35.015Z,2.20
2023-02-02T15:00:01.910Z,4.82
2023-02-02T15:02:37.654Z,4.00
2023-02-02T15:05:29.249Z,5.65
2023-02-02T15:08:27.789Z,4.40
2023-02-02T15:13:37.417Z,5.00
2023-02-02T15:16:24.847Z,5.55
2023-02-02T15:19:01.937Z,9.10
2023-02-02T15:21:31.611Z,10.25
2023-02-02T15:23:58.811Z,4.90
2023-02-02T15:26:37.390Z,8.07
2023-02-02T15:31:36.497Z,8.48
2023-02-02T15:34:45.101Z,9.07
2023-02-02T15:37:22.938Z,10.15
2023-02-02T15:39:55.868Z,8.70
2023-02-02T15:42:45.670Z,10.15
2023-02-02T15:45:35.468Z,14.30
2023-02-02T15:48:08.962Z,10.85
2023-02-02T15:50:36.490Z,10.52
2023-02-02T15:53:03.344Z,8.95
2023-02-02T15:55:33.533Z,9.27
2023-02-02T15:58:01.269Z,8.80
2023-02-02T16:00:32.403Z,11.63
2023-02-02T16:03:12.075Z,8.63
2023-02-02T16:05:43.714Z,12.18
2023-02-02T16:08:34.126Z,10.68
2023-02-02T16:11:19.830Z,13.48
2023-02-02T16:14:08.187Z,12.00
2023-02-02T16:16:38.657Z,17.67
2023-02-02T16:19:19.709Z,26.25
2023-02-02T16:22:01.244Z,14.85
2023-02-02T16:24:34.652Z,13.63
2023-02-02T16:27:05.706Z,14.25
2023-02-02T16:29:33.800Z,12.68
2023-02-02T16:32:00.875Z,11.65
2023-02-02T16:34:42.103Z,13.82
2023-02-02T16:37:22.345Z,19.08
2023-02-02T16:39:49.735Z,14.38
2023-02-02T16:42:28.608Z,21.02
2023-02-02T16:44:57.350Z,14.95
